Terminal Aerodrome Forecast
Issued by NWS Sterling, VA

Current Version | Previous Version | Graphics & Text | Print | Product List | Glossary On
Versions: 1 2 3 4 5 6 7 8 9 10 11 12 13 14 15 16 17 18 19 20 21 22 23 24
000
FTUS41 KLWX 310800 AAA
TAFDCA
TAF AMD
KDCA 310824Z 3108/0106 19006KT P6SM FEW008 SCT140 BKN250
     FM311000 19005KT P6SM SCT030 BKN090
     FM311400 21008KT P6SM FEW040 SCT150
     FM312200 22007KT P6SM -SHRA SCT050 BKN090
     FM010200 00000KT P6SM SCT040 OVC120=

USA.gov is the U.S. government's official web portal to all federal, state and local government web resources and services.